Time;durP1;ratioP1;P1;durP2;ratioP2;P2;SDS_P1;SDS_P2;PMS_P1;PMS_P2;Temp;Humidity;BMP_temperature;BMP_pressure;BME280_temperature;BME280_humidity;BME280_pressure;Samples;Min_cycle;Max_cycle;Signal;HPM_P1;HPM_P2
2023/03/07 00:01:40;;;;;;;25.20;13.30;;;;;;;2.87;79.81;99230.38;5085329;28;20217;-71
2023/03/07 00:04:08;;;;;;;25.00;12.57;;;;;;;2.85;80.30;99230.34;5087959;28;20214;-71
2023/03/07 00:06:34;;;;;;;27.37;13.20;;;;;;;2.87;80.38;99225.16;5087621;28;20195;-72
2023/03/07 00:09:02;;;;;;;29.00;12.93;;;;;;;2.85;79.85;99213.78;5084981;28;20192;-71
2023/03/07 00:11:28;;;;;;;26.20;13.43;;;;;;;2.96;79.32;99225.38;5085786;28;20201;-71
2023/03/07 00:13:55;;;;;;;26.93;13.07;;;;;;;2.99;78.92;99223.72;5086291;28;20208;-72
2023/03/07 00:16:23;;;;;;;26.33;12.73;;;;;;;3.03;78.74;99216.84;5080531;28;20654;-71
2023/03/07 00:18:50;;;;;;;24.17;13.20;;;;;;;3.14;78.39;99224.09;5085983;28;20658;-71
2023/03/07 00:21:19;;;;;;;25.73;12.73;;;;;;;3.15;78.07;99209.28;5085093;28;20924;-72
2023/03/07 00:23:46;;;;;;;25.80;13.13;;;;;;;3.11;78.51;99216.16;5077257;28;20206;-71
2023/03/07 00:26:16;;;;;;;25.63;12.73;;;;;;;3.17;78.06;99210.19;5084299;28;20193;-71
2023/03/07 00:28:45;;;;;;;28.70;14.63;;;;;;;3.15;78.49;99207.53;5086776;28;20238;-71
2023/03/07 00:31:11;;;;;;;27.57;13.80;;;;;;;3.14;79.04;99203.16;5086681;28;20262;-71
2023/03/07 00:33:38;;;;;;;27.43;12.77;;;;;;;3.19;78.76;99205.00;5085146;28;20283;-71
2023/03/07 00:36:12;;;;;;;30.60;14.40;;;;;;;3.22;78.68;99208.59;5086046;28;20583;-72
2023/03/07 00:38:38;;;;;;;27.17;13.40;;;;;;;3.16;79.18;99208.44;5082378;28;20195;-71
2023/03/07 00:41:07;;;;;;;26.90;13.20;;;;;;;3.15;79.23;99201.44;5088370;28;20608;-72
2023/03/07 00:43:34;;;;;;;26.23;14.30;;;;;;;3.13;79.29;99192.66;5084189;28;20256;-71
2023/03/07 00:46:01;;;;;;;27.37;14.53;;;;;;;3.12;79.38;99201.34;5082492;28;20256;-72
2023/03/07 00:48:28;;;;;;;27.63;14.47;;;;;;;3.08;79.90;99199.53;5086549;28;20194;-71
2023/03/07 00:50:55;;;;;;;28.47;14.47;;;;;;;3.10;80.45;99190.84;5082731;28;20297;-72
2023/03/07 00:53:22;;;;;;;27.33;14.27;;;;;;;3.10;80.00;99180.41;5087451;28;20330;-71
2023/03/07 00:56:15;;;;;;;28.43;14.53;;;;;;;3.15;79.55;99186.63;5087356;28;20260;-71
2023/03/07 00:58:41;;;;;;;31.97;15.40;;;;;;;3.18;79.58;99180.56;5088757;28;20242;-72
2023/03/07 01:01:09;;;;;;;28.20;14.50;;;;;;;3.17;79.56;99172.69;5087141;28;20262;-71
2023/03/07 01:03:36;;;;;;;28.17;14.90;;;;;;;3.17;79.41;99172.69;5092566;28;20195;-71
2023/03/07 01:06:05;;;;;;;29.80;15.30;;;;;;;3.19;79.18;99171.00;5091743;28;20211;-70
2023/03/07 01:08:31;;;;;;;28.53;14.83;;;;;;;3.15;79.58;99163.06;5089942;28;20198;-71
2023/03/07 01:11:00;;;;;;;32.57;15.53;;;;;;;3.14;79.54;99166.53;5091046;28;20189;-71
2023/03/07 01:13:26;;;;;;;30.37;14.77;;;;;;;3.20;79.80;99168.41;5089317;28;20675;-71
2023/03/07 01:15:53;;;;;;;28.97;15.33;;;;;;;3.22;79.32;99160.63;5086764;28;20278;-71
2023/03/07 01:18:22;;;;;;;31.90;15.40;;;;;;;3.24;79.51;99170.28;5087753;28;20197;-71
2023/03/07 01:20:48;;;;;;;28.30;15.17;;;;;;;3.22;79.88;99163.25;5091056;28;20667;-71
2023/03/07 01:23:14;;;;;;;30.30;15.33;;;;;;;3.20;79.83;99162.28;5089477;28;20225;-71
2023/03/07 01:25:42;;;;;;;32.60;15.57;;;;;;;3.18;80.32;99159.63;5082660;28;20262;-72
2023/03/07 01:28:12;;;;;;;35.23;16.00;;;;;;;3.20;80.58;99157.94;5088282;28;20193;-73
2023/03/07 01:30:39;;;;;;;32.17;16.20;;;;;;;3.19;80.84;99156.19;5091236;28;20221;-71
2023/03/07 01:33:05;;;;;;;29.70;14.73;;;;;;;3.17;81.07;99152.66;5086862;28;20610;-72
2023/03/07 01:35:39;;;;;;;32.90;15.80;;;;;;;3.22;80.96;99145.81;5086597;28;20731;-72
2023/03/07 01:38:05;;;;;;;31.90;16.30;;;;;;;3.16;81.78;99143.03;5087222;28;20196;-71
2023/03/07 01:40:32;;;;;;;31.53;15.43;;;;;;;3.21;82.17;99137.94;5090799;28;20363;-72
2023/03/07 01:43:22;;;;;;;29.33;14.97;;;;;;;3.20;82.59;99130.91;5085174;28;20193;-71
2023/03/07 01:45:48;;;;;;;26.97;14.90;;;;;;;3.23;82.65;99138.84;5086568;28;20232;-71
2023/03/07 01:48:15;;;;;;;31.17;15.17;;;;;;;3.17;83.00;99136.06;5090103;28;20197;-71
2023/03/07 01:50:43;;;;;;;26.40;14.47;;;;;;;3.17;83.69;99136.06;5090488;28;20236;-71
2023/03/07 01:53:10;;;;;;;29.23;14.97;;;;;;;3.20;83.31;99131.78;5086808;28;20224;-71
2023/03/07 01:55:37;;;;;;;29.23;15.37;;;;;;;3.18;83.36;99133.47;5086713;28;20212;-71
2023/03/07 01:58:11;;;;;;;28.57;15.00;;;;;;;3.21;83.66;99117.00;5092462;28;20230;-71
2023/03/07 02:00:40;;;;;;;28.43;14.27;;;;;;;3.20;83.48;99110.84;5087216;28;20256;-70
2023/03/07 02:03:09;;;;;;;25.67;14.33;;;;;;;3.20;83.61;99115.19;5084969;28;20243;-71
2023/03/07 02:05:39;;;;;;;28.20;15.00;;;;;;;3.25;83.74;99104.03;5084492;28;20213;-72
2023/03/07 02:08:10;;;;;;;28.03;14.57;;;;;;;3.24;83.98;99099.63;5091237;28;20669;-71
2023/03/07 02:10:38;;;;;;;26.03;13.43;;;;;;;3.21;84.11;99096.06;5085550;28;20221;-71
2023/03/07 02:13:04;;;;;;;26.77;13.17;;;;;;;3.20;84.30;99089.03;5086023;28;20628;-71
2023/03/07 02:15:33;;;;;;;26.77;12.83;;;;;;;3.18;84.33;99083.78;5088287;28;20268;-71
2023/03/07 02:18:01;;;;;;;25.17;12.80;;;;;;;3.16;84.78;99093.34;5089982;28;20213;-71
2023/03/07 02:20:49;;;;;;;26.60;13.30;;;;;;;3.11;85.02;99085.38;5083728;28;20210;-71
2023/03/07 02:23:32;;;;;;;24.07;13.10;;;;;;;3.17;84.74;99086.38;5088789;28;20193;-71
2023/03/07 02:26:03;;;;;;;23.37;13.00;;;;;;;3.15;84.54;99081.09;5085416;28;20245;-71
2023/03/07 02:28:29;;;;;;;26.20;13.73;;;;;;;3.17;84.48;99083.75;5086364;28;20259;-71
2023/03/07 02:30:59;;;;;;;21.60;11.90;;;;;;;3.20;84.44;99073.34;5088174;28;20248;-71
2023/03/07 02:33:26;;;;;;;23.93;12.90;;;;;;;3.21;84.36;99069.91;5085330;28;20200;-72
2023/03/07 02:35:56;;;;;;;20.17;11.90;;;;;;;3.27;84.06;99077.88;5082065;28;20643;-70
2023/03/07 02:38:23;;;;;;;22.07;11.67;;;;;;;3.21;84.54;99069.91;5082230;28;20279;-71
2023/03/07 02:40:53;;;;;;;21.17;11.50;;;;;;;3.20;84.24;99071.63;5089799;28;20634;-71
2023/03/07 02:43:21;;;;;;;18.33;10.43;;;;;;;3.22;84.61;99061.22;5085371;28;20294;-71
2023/03/07 02:45:47;;;;;;;22.07;11.40;;;;;;;3.20;84.97;99062.88;5089197;28;20258;-71
2023/03/07 02:48:14;;;;;;;18.23;10.80;;;;;;;3.19;85.06;99059.38;5089036;28;20229;-71
2023/03/07 02:50:40;;;;;;;20.67;10.87;;;;;;;3.22;84.82;99053.38;5084093;28;20227;-72
2023/03/07 02:53:06;;;;;;;20.70;11.43;;;;;;;3.17;85.14;99060.22;5089818;28;20243;-72
2023/03/07 02:55:33;;;;;;;18.10;10.53;;;;;;;3.25;85.14;99050.81;5086638;28;20269;-71
2023/03/07 02:57:59;;;;;;;18.10;10.43;;;;;;;3.21;84.98;99054.22;5087858;28;20221;-71
2023/03/07 03:00:25;;;;;;;17.80;9.40;;;;;;;3.24;85.20;99043.81;5083923;28;20194;-71
2023/03/07 03:02:52;;;;;;;17.80;10.03;;;;;;;3.22;85.21;99049.03;5089458;28;20205;-71
2023/03/07 03:05:18;;;;;;;17.70;10.13;;;;;;;3.21;85.46;99046.38;5088947;28;20213;-71
2023/03/07 03:07:47;;;;;;;15.63;9.07;;;;;;;3.19;85.21;99040.19;5088204;28;20226;-71
2023/03/07 03:10:13;;;;;;;16.60;9.03;;;;;;;3.20;85.52;99039.34;5087943;28;20684;-72
2023/03/07 03:12:40;;;;;;;17.53;9.37;;;;;;;3.22;85.54;99035.94;5087575;28;20198;-70
2023/03/07 03:15:07;;;;;;;17.03;9.70;;;;;;;3.23;85.58;99039.44;5089193;28;20210;-71
2023/03/07 03:17:33;;;;;;;14.47;8.23;;;;;;;3.22;85.53;99035.06;5085805;28;20193;-71
2023/03/07 03:20:00;;;;;;;17.50;8.80;;;;;;;3.26;85.12;99037.75;5087567;28;20198;-72
2023/03/07 03:22:26;;;;;;;16.13;8.97;;;;;;;3.31;84.83;99028.28;5088148;28;20213;-72
2023/03/07 03:24:52;;;;;;;13.90;7.87;;;;;;;3.36;84.49;99026.63;5087660;28;20232;-72
2023/03/07 03:27:19;;;;;;;13.20;7.90;;;;;;;3.37;84.62;99024.88;5088794;28;20230;-71
2023/03/07 03:29:45;;;;;;;13.50;7.63;;;;;;;3.31;84.57;99024.78;5086351;28;20225;-70
2023/03/07 03:32:12;;;;;;;14.00;8.23;;;;;;;3.33;84.62;99026.56;5084722;28;20664;-71
2023/03/07 03:34:38;;;;;;;12.30;7.53;;;;;;;3.31;84.59;99019.53;5089656;28;20281;-71
2023/03/07 03:37:06;;;;;;;12.83;7.63;;;;;;;3.29;85.23;99018.63;5086177;28;20270;-71
2023/03/07 03:39:32;;;;;;;11.97;7.17;;;;;;;3.30;84.80;99017.78;5088083;28;20233;-72
2023/03/07 03:41:59;;;;;;;12.43;7.83;;;;;;;3.30;84.78;99012.53;5087399;28;20275;-70
2023/03/07 03:44:25;;;;;;;12.40;7.30;;;;;;;3.33;84.72;99012.59;5084958;28;20222;-72
2023/03/07 03:46:51;;;;;;;12.03;7.43;;;;;;;3.35;84.53;99003.06;5088240;28;20716;-70
2023/03/07 03:49:18;;;;;;;12.53;7.90;;;;;;;3.30;84.72;98995.13;5088040;28;20651;-71
2023/03/07 03:51:44;;;;;;;14.27;8.07;;;;;;;3.26;84.87;99006.38;5086174;28;20197;-71
2023/03/07 03:54:11;;;;;;;12.50;7.50;;;;;;;3.30;84.94;98999.47;5084362;28;20704;-70
2023/03/07 03:56:37;;;;;;;13.83;8.07;;;;;;;3.28;85.33;99002.06;5083423;28;20202;-70
2023/03/07 03:59:03;;;;;;;14.57;8.33;;;;;;;3.26;85.38;98976.72;5088796;28;20194;-73
2023/03/07 04:01:30;;;;;;;15.60;8.60;;;;;;;3.32;84.90;98992.53;5082210;28;20270;-71
2023/03/07 04:03:57;;;;;;;15.33;8.47;;;;;;;3.30;85.12;98989.00;5082089;28;20196;-72
2023/03/07 04:06:26;;;;;;;15.80;9.13;;;;;;;3.29;85.42;98982.00;5088534;28;20198;-71
2023/03/07 04:08:53;;;;;;;16.87;9.43;;;;;;;3.32;85.30;98980.31;5086151;28;20443;-72
2023/03/07 04:11:21;;;;;;;15.70;9.70;;;;;;;3.32;85.36;98982.06;5084648;28;20215;-70
2023/03/07 04:13:48;;;;;;;18.60;10.77;;;;;;;3.34;85.33;98980.34;5087734;28;20197;-70
2023/03/07 04:16:15;;;;;;;17.83;9.67;;;;;;;3.32;85.23;98976.81;5088904;28;20591;-70
2023/03/07 04:18:42;;;;;;;18.03;10.23;;;;;;;3.34;85.37;98982.97;5085490;28;20251;-70
2023/03/07 04:21:11;;;;;;;18.53;10.63;;;;;;;3.39;85.25;98970.84;5083848;28;20217;-71
2023/03/07 04:23:38;;;;;;;19.33;11.23;;;;;;;3.31;85.56;98977.69;5087997;28;20277;-71
2023/03/07 04:26:07;;;;;;;18.17;10.37;;;;;;;3.29;85.61;98964.56;5083317;28;20221;-71
2023/03/07 04:28:45;;;;;;;21.00;11.00;;;;;;;3.30;85.54;98968.94;5086743;28;20194;-72
2023/03/07 04:31:17;;;;;;;20.47;11.27;;;;;;;3.31;85.69;98956.75;5082184;28;20194;-71
2023/03/07 04:33:44;;;;;;;19.07;10.87;;;;;;;3.29;85.72;98959.34;5088119;28;20630;-71
2023/03/07 04:36:12;;;;;;;22.67;11.50;;;;;;;3.29;85.79;98969.81;5087129;28;20629;-71
2023/03/07 04:38:39;;;;;;;21.07;11.43;;;;;;;3.30;85.66;98952.38;5089199;28;20260;-71
2023/03/07 04:41:07;;;;;;;19.33;10.67;;;;;;;3.29;85.62;98955.84;5091841;28;20282;-71
2023/03/07 04:43:34;;;;;;;22.57;11.57;;;;;;;3.25;85.86;98959.25;5089080;28;20254;-71
2023/03/07 04:46:00;;;;;;;18.93;11.37;;;;;;;3.25;85.86;98960.13;5088903;28;20241;-71
2023/03/07 04:48:27;;;;;;;20.03;11.27;;;;;;;3.24;86.03;98952.25;5089207;28;20189;-71
2023/03/07 04:50:56;;;;;;;19.87;11.00;;;;;;;3.23;85.71;98950.50;5092785;28;20205;-71
2023/03/07 04:53:22;;;;;;;19.47;10.90;;;;;;;3.19;86.20;98946.03;5090027;28;20197;-72
2023/03/07 04:55:49;;;;;;;21.03;11.53;;;;;;;3.20;86.06;98943.44;5090577;28;20249;-71
2023/03/07 04:58:15;;;;;;;21.80;11.40;;;;;;;3.24;85.64;98941.78;5091662;28;20236;-71
2023/03/07 05:00:43;;;;;;;21.27;10.77;;;;;;;3.23;85.79;98942.66;5090305;28;20213;-70
2023/03/07 05:03:12;;;;;;;23.73;12.30;;;;;;;3.22;85.54;98933.03;5086821;28;20243;-72
2023/03/07 05:05:38;;;;;;;19.83;11.47;;;;;;;3.23;85.58;98940.91;5091373;28;20213;-71
2023/03/07 05:08:06;;;;;;;22.87;11.33;;;;;;;3.29;85.19;98934.91;5089930;28;20281;-71
2023/03/07 05:10:33;;;;;;;21.23;11.47;;;;;;;3.26;85.12;98935.75;5091401;28;20662;-70
2023/03/07 05:13:00;;;;;;;19.40;11.37;;;;;;;3.33;85.04;98932.38;5085589;28;20225;-70
2023/03/07 05:15:27;;;;;;;22.10;11.63;;;;;;;3.31;84.98;98943.66;5089966;28;20264;-71
2023/03/07 05:17:53;;;;;;;21.63;11.03;;;;;;;3.30;85.30;98940.16;5089259;28;20216;-73
2023/03/07 05:20:20;;;;;;;21.70;11.17;;;;;;;3.32;84.67;98937.59;5089008;28;20194;-71
2023/03/07 05:22:47;;;;;;;21.30;11.17;;;;;;;3.33;84.97;98936.72;5090429;28;20248;-70
2023/03/07 05:25:13;;;;;;;21.67;11.30;;;;;;;3.31;84.71;98927.97;5092360;28;20673;-73
2023/03/07 05:27:40;;;;;;;20.00;12.00;;;;;;;3.32;84.79;98932.34;5086735;28;20198;-71
2023/03/07 05:30:07;;;;;;;21.33;11.63;;;;;;;3.32;84.91;98916.66;5085503;28;20225;-71
2023/03/07 05:32:33;;;;;;;19.37;10.80;;;;;;;3.32;84.60;98925.38;5086803;28;20240;-72
2023/03/07 05:35:00;;;;;;;21.73;11.50;;;;;;;3.30;84.67;98926.22;5087379;28;20726;-71
2023/03/07 05:37:27;;;;;;;21.50;11.43;;;;;;;3.34;84.32;98922.78;5089935;28;20661;-70
2023/03/07 05:39:53;;;;;;;19.17;10.83;;;;;;;3.36;84.05;98913.25;5089795;28;20194;-70
2023/03/07 05:42:19;;;;;;;21.13;11.37;;;;;;;3.44;83.86;98915.13;5088943;28;20236;-71
2023/03/07 05:44:46;;;;;;;24.07;11.37;;;;;;;3.39;83.99;98913.28;5089169;28;20244;-72
2023/03/07 05:47:13;;;;;;;19.23;11.17;;;;;;;3.44;83.65;98909.00;5087223;28;20190;-71
2023/03/07 05:49:39;;;;;;;24.57;11.17;;;;;;;3.44;83.56;98903.78;5087069;28;20293;-71
2023/03/07 05:52:05;;;;;;;21.83;11.57;;;;;;;3.40;83.43;98896.72;5089697;28;20669;-72
2023/03/07 05:54:32;;;;;;;21.77;10.70;;;;;;;3.42;83.81;98902.88;5089920;28;20279;-71
2023/03/07 05:56:58;;;;;;;20.57;11.10;;;;;;;3.46;83.51;98907.31;5086996;28;20197;-72
2023/03/07 05:59:24;;;;;;;21.57;11.37;;;;;;;3.45;83.44;98900.31;5089826;28;20197;-71
2023/03/07 06:01:51;;;;;;;19.77;10.90;;;;;;;3.48;83.46;98910.84;5086687;28;20244;-70
2023/03/07 06:04:17;;;;;;;20.17;11.17;;;;;;;3.47;83.53;98901.22;5086409;28;20221;-71
2023/03/07 06:06:44;;;;;;;19.43;11.20;;;;;;;3.50;83.26;98903.88;5081658;28;20212;-72
2023/03/07 06:09:10;;;;;;;20.40;10.90;;;;;;;3.46;83.19;98900.34;5085070;28;20217;-71
2023/03/07 06:11:36;;;;;;;20.60;11.03;;;;;;;3.49;83.11;98904.75;5087262;28;20217;-71
2023/03/07 06:14:03;;;;;;;21.50;11.47;;;;;;;3.47;83.19;98904.72;5079777;28;20223;-71
2023/03/07 06:16:29;;;;;;;19.97;10.70;;;;;;;3.50;83.08;98897.78;5085617;28;20206;-71
2023/03/07 06:18:56;;;;;;;20.33;11.40;;;;;;;3.53;82.92;98903.06;5087071;28;20207;-71
2023/03/07 06:21:22;;;;;;;23.47;12.57;;;;;;;3.53;82.74;98905.66;5088159;28;20213;-72
2023/03/07 06:23:48;;;;;;;19.83;11.10;;;;;;;3.53;82.66;98900.44;5087668;28;20297;-71
2023/03/07 06:26:15;;;;;;;19.80;11.20;;;;;;;3.53;82.66;98911.78;5085153;28;20189;-73
2023/03/07 06:28:42;;;;;;;22.23;11.53;;;;;;;3.59;82.25;98906.66;5087008;28;20658;-72
2023/03/07 06:31:14;;;;;;;22.10;11.53;;;;;;;3.57;82.31;98912.72;5082124;28;20197;-73
2023/03/07 06:33:41;;;;;;;19.67;11.20;;;;;;;3.67;81.36;98915.53;5065805;28;20197;-69
2023/03/07 06:36:10;;;;;;;18.93;10.37;;;;;;;3.72;80.85;98913.00;5082789;28;20218;-69
2023/03/07 06:38:37;;;;;;;20.57;10.73;;;;;;;3.71;81.25;98922.59;5086820;28;20583;-70
2023/03/07 06:41:04;;;;;;;23.67;12.17;;;;;;;3.69;80.98;98905.97;5086286;28;20620;-71
2023/03/07 06:43:31;;;;;;;19.10;10.57;;;;;;;3.73;80.46;98915.66;5085461;28;20209;-71
2023/03/07 06:45:57;;;;;;;22.50;10.87;;;;;;;3.77;80.62;98921.81;5080809;28;20287;-71
2023/03/07 06:48:24;;;;;;;21.27;10.43;;;;;;;3.84;80.59;98922.78;5083763;28;20222;-71
2023/03/07 06:50:50;;;;;;;18.57;10.33;;;;;;;3.84;79.96;98923.66;5085995;28;20221;-72
2023/03/07 06:53:17;;;;;;;19.93;10.77;;;;;;;3.86;80.21;98915.84;5083836;28;20199;-71
2023/03/07 06:55:48;;;;;;;19.83;10.93;;;;;;;3.90;79.97;98918.53;5086056;28;20221;-71
2023/03/07 06:58:14;;;;;;;18.27;10.60;;;;;;;3.97;79.75;98916.88;5082766;28;20259;-72
2023/03/07 07:00:41;;;;;;;25.07;11.57;;;;;;;4.05;79.24;98910.03;5083577;28;20248;-72
2023/03/07 07:03:12;;;;;;;23.50;10.63;;;;;;;4.07;79.23;98917.06;5081248;28;20221;-69
2023/03/07 07:05:39;;;;;;;21.40;11.47;;;;;;;4.13;78.74;98918.00;5082814;28;20306;-70
2023/03/07 07:08:05;;;;;;;20.80;10.53;;;;;;;4.20;78.50;98915.50;5079298;28;20223;-69
2023/03/07 07:10:31;;;;;;;20.57;10.73;;;;;;;4.22;78.74;98913.78;5084587;28;20673;-70
2023/03/07 07:12:58;;;;;;;21.00;10.13;;;;;;;4.28;78.03;98915.63;5085901;28;20598;-70
2023/03/07 07:15:25;;;;;;;18.73;10.13;;;;;;;4.34;77.83;98919.19;5084008;28;20219;-70
2023/03/07 07:17:52;;;;;;;17.60;9.60;;;;;;;4.38;77.30;98917.50;5085517;28;20214;-70
2023/03/07 07:20:18;;;;;;;18.00;10.30;;;;;;;4.39;76.88;98908.78;5087061;28;20194;-69
2023/03/07 07:22:44;;;;;;;23.33;10.60;;;;;;;4.31;77.31;98915.66;5086804;28;20921;-70
2023/03/07 07:25:11;;;;;;;21.90;11.03;;;;;;;4.37;77.59;98911.38;5084636;28;20219;-70
2023/03/07 07:27:37;;;;;;;19.20;10.40;;;;;;;4.40;77.29;98907.91;5090124;28;20233;-70
2023/03/07 07:30:05;;;;;;;22.57;10.80;;;;;;;4.42;77.00;98916.72;5087363;28;20223;-70
2023/03/07 07:32:31;;;;;;;18.73;9.43;;;;;;;4.43;76.85;98914.97;5084671;28;20612;-69
2023/03/07 07:34:58;;;;;;;20.00;9.80;;;;;;;4.40;76.99;98915.78;5077447;28;20222;-67
2023/03/07 07:37:24;;;;;;;18.77;9.93;;;;;;;4.53;76.93;98916.84;5081569;28;20665;-68
2023/03/07 07:39:50;;;;;;;18.67;9.90;;;;;;;4.53;76.91;98920.34;5079943;28;20623;-69
2023/03/07 07:42:17;;;;;;;19.87;10.80;;;;;;;4.62;76.52;98919.59;5080662;28;20981;-69
2023/03/07 07:44:45;;;;;;;16.10;9.73;;;;;;;4.73;75.80;98921.47;5082301;28;21473;-69
2023/03/07 07:47:12;;;;;;;15.93;9.37;;;;;;;4.76;75.46;98915.38;5080052;28;20256;-68
2023/03/07 07:49:38;;;;;;;20.77;10.13;;;;;;;4.87;75.26;98910.31;5082082;28;20494;-68
2023/03/07 07:52:05;;;;;;;18.47;9.43;;;;;;;5.01;75.13;98909.59;5084439;28;20195;-69
2023/03/07 07:54:31;;;;;;;18.17;9.07;;;;;;;5.11;73.99;98907.94;5080261;28;20304;-69
2023/03/07 07:56:57;;;;;;;17.53;9.47;;;;;;;5.27;73.83;98902.03;5083722;28;20198;-69
2023/03/07 07:59:24;;;;;;;17.33;9.40;;;;;;;5.39;73.30;98905.63;5085402;28;20205;-70
2023/03/07 08:01:50;;;;;;;15.90;9.10;;;;;;;5.42;72.43;98905.66;5074803;28;20270;-72
2023/03/07 08:04:17;;;;;;;14.30;8.03;;;;;;;5.26;72.42;98892.38;5078424;28;20216;-72
2023/03/07 08:06:43;;;;;;;18.33;9.00;;;;;;;5.54;72.37;98895.25;5082301;28;20208;-72
2023/03/07 08:09:10;;;;;;;18.63;9.33;;;;;;;5.68;71.31;98895.41;5082734;28;20195;-71
2023/03/07 08:11:36;;;;;;;16.47;8.23;;;;;;;5.84;70.43;98892.91;5082937;28;20246;-73
2023/03/07 08:14:02;;;;;;;15.90;9.00;;;;;;;5.80;70.53;98885.00;5075785;28;20212;-71
2023/03/07 08:16:29;;;;;;;16.30;8.80;;;;;;;5.82;70.22;98886.75;5082890;28;20203;-72
2023/03/07 08:18:56;;;;;;;18.63;9.63;;;;;;;5.99;69.95;98894.78;5077591;28;20656;-71
2023/03/07 08:21:24;;;;;;;16.53;9.00;;;;;;;6.05;69.83;98879.09;5079314;28;20234;-72
2023/03/07 08:23:52;;;;;;;13.60;8.30;;;;;;;6.16;69.30;98884.41;5084519;28;20270;-71
2023/03/07 08:26:19;;;;;;;18.93;9.00;;;;;;;6.36;69.11;98879.28;5083857;28;20615;-71
2023/03/07 08:28:46;;;;;;;17.57;9.50;;;;;;;6.42;68.15;98876.72;5083355;28;20621;-71
2023/03/07 08:31:16;;;;;;;18.03;9.73;;;;;;;6.64;67.52;98875.94;5084932;28;20665;-72
2023/03/07 08:33:45;;;;;;;16.00;8.73;;;;;;;6.81;66.57;98873.38;5069076;28;20515;-67
2023/03/07 08:36:11;;;;;;;13.87;8.60;;;;;;;6.89;66.19;98869.03;5074803;28;20221;-71
2023/03/07 08:38:38;;;;;;;14.83;8.43;;;;;;;6.87;65.97;98876.03;5087178;28;20232;-71
2023/03/07 08:41:07;;;;;;;17.00;8.70;;;;;;;6.87;66.11;98862.88;5078943;28;20189;-70
2023/03/07 08:43:35;;;;;;;16.00;8.37;;;;;;;6.97;65.81;98861.16;5079471;28;20255;-69
2023/03/07 08:46:03;;;;;;;16.27;9.27;;;;;;;7.01;65.54;98855.03;5078566;28;20503;-70
2023/03/07 08:48:32;;;;;;;17.23;8.27;;;;;;;7.27;64.66;98860.34;5071284;28;20202;-70
2023/03/07 08:51:07;;;;;;;13.77;8.17;;;;;;;7.22;63.96;98855.97;5080838;28;20193;-71
2023/03/07 08:53:34;;;;;;;13.07;7.77;;;;;;;7.14;64.67;98856.81;5082169;28;20698;-71
2023/03/07 08:56:05;;;;;;;15.80;8.57;;;;;;;7.17;64.75;98864.69;5082294;28;20214;-69
2023/03/07 08:58:31;;;;;;;17.53;8.07;;;;;;;7.33;63.56;98858.59;5082857;28;20703;-70
2023/03/07 09:00:57;;;;;;;15.33;8.57;;;;;;;7.27;63.55;98861.25;5083899;28;20244;-70
2023/03/07 09:03:24;;;;;;;13.80;8.03;;;;;;;7.41;63.63;98848.97;5084059;28;20717;-69
2023/03/07 09:05:50;;;;;;;16.63;7.97;;;;;;;7.30;63.48;98850.72;5082492;28;20767;-69
2023/03/07 09:08:16;;;;;;;13.57;7.73;;;;;;;7.37;63.35;98856.84;5076902;28;20226;-69
2023/03/07 09:10:43;;;;;;;15.43;7.47;;;;;;;7.34;62.85;98851.59;5076059;28;20287;-70
2023/03/07 09:13:09;;;;;;;13.20;7.50;;;;;;;7.50;62.80;98843.69;5073076;28;20215;-70
2023/03/07 09:15:39;;;;;;;16.00;7.67;;;;;;;7.39;62.46;98853.34;5083384;28;20263;-70
2023/03/07 09:18:08;;;;;;;14.60;7.87;;;;;;;7.47;62.24;98859.50;5081597;28;20198;-69
2023/03/07 09:20:36;;;;;;;16.07;8.17;;;;;;;7.61;62.67;98859.53;5085196;28;20262;-69
2023/03/07 09:23:04;;;;;;;13.77;7.20;;;;;;;7.59;62.41;98860.38;5081562;28;20226;-70
2023/03/07 09:25:30;;;;;;;15.27;7.77;;;;;;;7.55;62.65;98860.38;5087755;28;20213;-69
2023/03/07 09:27:56;;;;;;;15.50;7.70;;;;;;;7.73;62.09;98859.53;5085289;28;22045;-69
2023/03/07 09:30:24;;;;;;;13.30;7.13;;;;;;;7.77;61.83;98849.84;5081183;28;20275;-69
2023/03/07 09:32:50;;;;;;;13.27;7.57;;;;;;;7.94;61.31;98855.97;5078344;28;20224;-70
2023/03/07 09:35:17;;;;;;;12.63;7.60;;;;;;;7.98;60.43;98849.81;5083721;28;20271;-69
2023/03/07 09:37:43;;;;;;;12.27;8.00;;;;;;;8.08;60.29;98846.31;5081574;28;20202;-69
2023/03/07 09:40:16;;;;;;;14.87;7.73;;;;;;;8.10;59.67;98855.09;5083467;28;20205;-70
2023/03/07 09:43:04;;;;;;;13.03;7.93;;;;;;;8.32;59.61;98842.75;5077467;28;20325;-69
2023/03/07 09:46:08;;;;;;;12.30;7.67;;;;;;;8.48;59.15;98841.88;5080772;28;20276;-70
2023/03/07 09:49:15;;;;;;;15.63;7.47;;;;;;;8.64;58.36;98847.06;5081980;28;20658;-69
2023/03/07 09:51:42;;;;;;;13.23;7.80;;;;;;;8.72;58.27;98827.69;5079360;28;20244;-69
2023/03/07 09:54:13;;;;;;;13.87;7.50;;;;;;;9.00;57.08;98833.72;5076367;28;20666;-70
2023/03/07 09:56:48;;;;;;;11.57;6.73;;;;;;;8.72;56.95;98824.16;5080616;28;20205;-70
2023/03/07 09:59:21;;;;;;;11.73;6.90;;;;;;;8.72;57.07;98826.81;5076531;28;20236;-69
2023/03/07 10:02:16;;;;;;;12.30;7.03;;;;;;;8.65;57.50;98819.81;5079866;28;20201;-70
2023/03/07 10:04:51;;;;;;;11.43;6.63;;;;;;;8.40;57.39;98829.56;5081446;28;20248;-70
2023/03/07 10:07:21;;;;;;;13.33;7.10;;;;;;;8.51;56.62;98822.50;5078813;28;20241;-69
2023/03/07 10:09:53;;;;;;;11.87;6.77;;;;;;;8.39;57.05;98815.50;5079338;28;20235;-69
2023/03/07 10:12:30;;;;;;;12.73;6.67;;;;;;;8.70;56.80;98821.53;5079462;28;20646;-69
2023/03/07 10:15:16;;;;;;;12.47;6.50;;;;;;;8.83;55.62;98826.78;5080019;28;20954;-70
2023/03/07 10:18:13;;;;;;;11.20;6.27;;;;;;;8.93;55.22;98802.97;5074640;28;20205;-70
2023/03/07 10:20:48;;;;;;;12.10;6.50;;;;;;;8.93;54.73;98821.44;5077366;28;20200;-70
2023/03/07 10:23:50;;;;;;;11.97;7.00;;;;;;;9.06;54.28;98809.91;5072387;28;20213;-69
2023/03/07 10:26:16;;;;;;;10.27;6.50;;;;;;;9.15;53.36;98808.97;5072399;28;20200;-70
2023/03/07 10:28:45;;;;;;;10.50;6.30;;;;;;;9.13;53.69;98807.22;5073618;28;20259;-69
2023/03/07 10:31:19;;;;;;;12.37;6.30;;;;;;;9.26;53.43;98809.81;5072106;28;20193;-70
2023/03/07 10:33:48;;;;;;;9.37;6.17;;;;;;;9.41;52.17;98799.09;5073981;28;20201;-69
2023/03/07 10:36:36;;;;;;;9.73;5.87;;;;;;;9.63;52.10;98796.31;5071460;28;20197;-70
2023/03/07 10:39:25;;;;;;;12.93;6.30;;;;;;;9.95;50.95;98798.63;5072989;28;20198;-70
2023/03/07 10:41:52;;;;;;;11.07;6.17;;;;;;;9.96;50.85;98795.97;5069740;28;20203;-70
2023/03/07 10:44:20;;;;;;;10.93;6.07;;;;;;;10.14;49.52;98778.19;5073642;28;20256;-70
2023/03/07 10:46:53;;;;;;;7.97;5.47;;;;;;;10.14;49.57;98791.41;5069602;28;20210;-69
2023/03/07 10:49:31;;;;;;;11.67;6.70;;;;;;;9.86;49.32;98788.16;5073060;28;20274;-70
2023/03/07 10:52:05;;;;;;;11.43;5.93;;;;;;;10.08;49.85;98772.97;5071966;28;20247;-69
2023/03/07 10:54:34;;;;;;;9.03;5.90;;;;;;;10.04;49.52;98786.22;5072402;28;20249;-70
2023/03/07 10:57:11;;;;;;;11.60;5.77;;;;;;;9.90;49.04;98785.47;5070318;28;20723;-69
2023/03/07 10:59:40;;;;;;;9.40;5.73;;;;;;;9.65;49.57;98789.25;5070582;28;20220;-70
2023/03/07 11:02:45;;;;;;;8.63;5.70;;;;;;;9.54;50.23;98778.75;5070507;28;20723;-70
2023/03/07 11:05:26;;;;;;;9.27;5.77;;;;;;;9.62;50.32;98771.66;5075244;28;20233;-70
2023/03/07 11:07:53;;;;;;;8.60;4.93;;;;;;;9.33;50.33;98774.53;5073958;28;20197;-70
2023/03/07 11:10:33;;;;;;;10.10;5.40;;;;;;;9.30;50.38;98779.84;5080841;28;20221;-70
2023/03/07 11:13:13;;;;;;;12.50;6.40;;;;;;;9.77;49.86;98783.84;5076701;28;20289;-70
2023/03/07 11:15:39;;;;;;;17.23;6.63;;;;;;;9.82;49.03;98768.81;5080299;28;20239;-70
2023/03/07 11:18:23;;;;;;;11.33;6.10;;;;;;;10.11;48.57;98757.94;5073753;28;20195;-69
2023/03/07 11:20:50;;;;;;;10.93;6.30;;;;;;;10.31;48.42;98765.66;5080279;28;20222;-69
2023/03/07 11:23:22;;;;;;;11.50;6.60;;;;;;;10.43;47.19;98756.72;5078970;28;20210;-70
2023/03/07 11:25:50;;;;;;;16.93;6.63;;;;;;;10.66;46.54;98742.28;5073113;28;20740;-69
2023/03/07 11:28:25;;;;;;;10.60;5.97;;;;;;;10.49;45.87;98756.66;5076439;28;20199;-69
2023/03/07 11:31:05;;;;;;;9.20;5.50;;;;;;;10.33;46.77;98748.00;5074197;28;20679;-69
2023/03/07 11:33:49;;;;;;;10.23;5.63;;;;;;;9.82;47.47;98757.34;5074419;28;20197;-69
2023/03/07 11:36:33;;;;;;;9.17;5.40;;;;;;;9.97;47.52;98750.13;5072271;28;20223;-69
2023/03/07 11:39:13;;;;;;;10.30;5.90;;;;;;;10.22;46.78;98742.84;5073092;28;20248;-69